sensor_id;sensor_type;location;lat;lon;timestamp;temperature;humidity
69006;SHT31;56061;51.748;19.620;2023-02-26T00:01:38;0.51;81.11
69006;SHT31;56061;51.748;19.620;2023-02-26T00:04:06;0.50;81.00
69006;SHT31;56061;51.748;19.620;2023-02-26T00:06:35;0.49;80.82
69006;SHT31;56061;51.748;19.620;2023-02-26T00:09:04;0.48;80.91
69006;SHT31;56061;51.748;19.620;2023-02-26T00:11:31;0.46;80.83
69006;SHT31;56061;51.748;19.620;2023-02-26T00:13:59;0.46;80.87
69006;SHT31;56061;51.748;19.620;2023-02-26T00:16:27;0.44;80.86
69006;SHT31;56061;51.748;19.620;2023-02-26T00:19:02;0.42;81.04
69006;SHT31;56061;51.748;19.620;2023-02-26T00:21:32;0.41;80.99
69006;SHT31;56061;51.748;19.620;2023-02-26T00:24:01;0.40;80.97
69006;SHT31;56061;51.748;19.620;2023-02-26T00:26:29;0.39;80.86
69006;SHT31;56061;51.748;19.620;2023-02-26T00:28:57;0.40;81.09
69006;SHT31;56061;51.748;19.620;2023-02-26T00:31:24;0.41;81.19
69006;SHT31;56061;51.748;19.620;2023-02-26T00:33:53;0.40;81.18
69006;SHT31;56061;51.748;19.620;2023-02-26T00:42:13;0.34;81.47
69006;SHT31;56061;51.748;19.620;2023-02-26T00:44:40;0.35;81.33
69006;SHT31;56061;51.748;19.620;2023-02-26T00:47:20;0.35;81.41
69006;SHT31;56061;51.748;19.620;2023-02-26T00:50:16;0.36;81.46
69006;SHT31;56061;51.748;19.620;2023-02-26T00:53:06;0.36;81.29
69006;SHT31;56061;51.748;19.620;2023-02-26T00:55:45;0.33;81.33
69006;SHT31;56061;51.748;19.620;2023-02-26T00:58:11;0.31;81.47
69006;SHT31;56061;51.748;19.620;2023-02-26T01:00:38;0.29;81.52
69006;SHT31;56061;51.748;19.620;2023-02-26T01:03:04;0.29;81.60
69006;SHT31;56061;51.748;19.620;2023-02-26T01:05:31;0.29;81.67
69006;SHT31;56061;51.748;19.620;2023-02-26T01:10:41;0.31;81.60
69006;SHT31;56061;51.748;19.620;2023-02-26T01:13:08;0.30;81.26
69006;SHT31;56061;51.748;19.620;2023-02-26T01:15:35;0.29;81.26
69006;SHT31;56061;51.748;19.620;2023-02-26T01:18:22;0.26;81.36
69006;SHT31;56061;51.748;19.620;2023-02-26T01:21:00;0.24;81.44
69006;SHT31;56061;51.748;19.620;2023-02-26T01:23:32;0.23;81.51
69006;SHT31;56061;51.748;19.620;2023-02-26T01:26:07;0.23;81.62
69006;SHT31;56061;51.748;19.620;2023-02-26T01:28:57;0.22;81.64
69006;SHT31;56061;51.748;19.620;2023-02-26T01:34:23;0.17;81.63
69006;SHT31;56061;51.748;19.620;2023-02-26T01:37:11;0.17;81.63
69006;SHT31;56061;51.748;19.620;2023-02-26T01:43:01;0.16;81.76
69006;SHT31;56061;51.748;19.620;2023-02-26T01:45:38;0.18;81.80
69006;SHT31;56061;51.748;19.620;2023-02-26T01:48:33;0.19;81.89
69006;SHT31;56061;51.748;19.620;2023-02-26T01:54:14;0.20;81.98
69006;SHT31;56061;51.748;19.620;2023-02-26T01:56:46;0.18;81.81
69006;SHT31;56061;51.748;19.620;2023-02-26T01:59:18;0.17;81.92
69006;SHT31;56061;51.748;19.620;2023-02-26T02:01:53;0.17;82.02
69006;SHT31;56061;51.748;19.620;2023-02-26T02:04:22;0.20;82.02
69006;SHT31;56061;51.748;19.620;2023-02-26T02:06:50;0.21;82.11
69006;SHT31;56061;51.748;19.620;2023-02-26T02:09:17;0.21;82.09
69006;SHT31;56061;51.748;19.620;2023-02-26T02:14:40;0.20;82.11
69006;SHT31;56061;51.748;19.620;2023-02-26T02:23:26;0.18;82.20
69006;SHT31;56061;51.748;19.620;2023-02-26T02:26:08;0.20;82.15
69006;SHT31;56061;51.748;19.620;2023-02-26T02:32:02;0.18;81.86
69006;SHT31;56061;51.748;19.620;2023-02-26T02:34:36;0.16;81.77
69006;SHT31;56061;51.748;19.620;2023-02-26T02:40:23;0.14;81.60
69006;SHT31;56061;51.748;19.620;2023-02-26T02:42:58;0.15;81.66
69006;SHT31;56061;51.748;19.620;2023-02-26T02:45:40;0.16;81.52
69006;SHT31;56061;51.748;19.620;2023-02-26T02:51:08;0.14;81.27
69006;SHT31;56061;51.748;19.620;2023-02-26T02:53:46;0.09;81.17
69006;SHT31;56061;51.748;19.620;2023-02-26T02:56:25;0.05;81.03
69006;SHT31;56061;51.748;19.620;2023-02-26T02:59:02;0.04;81.17
69006;SHT31;56061;51.748;19.620;2023-02-26T03:01:41;0.04;81.30
69006;SHT31;56061;51.748;19.620;2023-02-26T03:04:11;0.05;81.24
69006;SHT31;56061;51.748;19.620;2023-02-26T03:06:41;0.05;81.23
69006;SHT31;56061;51.748;19.620;2023-02-26T03:09:08;0.04;81.18
69006;SHT31;56061;51.748;19.620;2023-02-26T03:11:36;0.02;81.12
69006;SHT31;56061;51.748;19.620;2023-02-26T03:14:03;-0.01;81.18
69006;SHT31;56061;51.748;19.620;2023-02-26T03:16:36;-0.04;81.17
69006;SHT31;56061;51.748;19.620;2023-02-26T03:19:20;-0.05;81.10
69006;SHT31;56061;51.748;19.620;2023-02-26T03:22:12;-0.04;81.20
69006;SHT31;56061;51.748;19.620;2023-02-26T03:30:57;-0.05;80.91
69006;SHT31;56061;51.748;19.620;2023-02-26T03:36:43;-0.07;81.15
69006;SHT31;56061;51.748;19.620;2023-02-26T03:39:25;-0.04;81.20
69006;SHT31;56061;51.748;19.620;2023-02-26T03:42:06;-0.03;81.19
69006;SHT31;56061;51.748;19.620;2023-02-26T03:44:46;-0.02;81.14
69006;SHT31;56061;51.748;19.620;2023-02-26T03:47:18;-0.02;81.07
69006;SHT31;56061;51.748;19.620;2023-02-26T03:49:54;-0.05;81.06
69006;SHT31;56061;51.748;19.620;2023-02-26T03:52:26;-0.07;81.00
69006;SHT31;56061;51.748;19.620;2023-02-26T03:54:59;-0.08;81.04
69006;SHT31;56061;51.748;19.620;2023-02-26T03:57:40;-0.07;80.95
69006;SHT31;56061;51.748;19.620;2023-02-26T04:00:07;-0.06;80.77
69006;SHT31;56061;51.748;19.620;2023-02-26T04:02:38;-0.06;80.74
69006;SHT31;56061;51.748;19.620;2023-02-26T04:05:15;-0.06;80.69
69006;SHT31;56061;51.748;19.620;2023-02-26T04:07:46;-0.07;80.51
69006;SHT31;56061;51.748;19.620;2023-02-26T04:10:15;-0.09;80.42
69006;SHT31;56061;51.748;19.620;2023-02-26T04:12:46;-0.10;80.57
69006;SHT31;56061;51.748;19.620;2023-02-26T04:15:13;-0.10;80.44
69006;SHT31;56061;51.748;19.620;2023-02-26T04:17:40;-0.10;80.49
69006;SHT31;56061;51.748;19.620;2023-02-26T04:20:06;-0.09;80.47
69006;SHT31;56061;51.748;19.620;2023-02-26T04:22:37;-0.08;80.40
69006;SHT31;56061;51.748;19.620;2023-02-26T04:25:04;-0.07;80.42
69006;SHT31;56061;51.748;19.620;2023-02-26T04:27:31;-0.08;80.40
69006;SHT31;56061;51.748;19.620;2023-02-26T04:29:57;-0.10;80.18
69006;SHT31;56061;51.748;19.620;2023-02-26T04:32:24;-0.11;80.11
69006;SHT31;56061;51.748;19.620;2023-02-26T04:34:50;-0.11;80.06
69006;SHT31;56061;51.748;19.620;2023-02-26T04:37:17;-0.11;80.08
69006;SHT31;56061;51.748;19.620;2023-02-26T04:39:43;-0.11;80.11
69006;SHT31;56061;51.748;19.620;2023-02-26T04:42:10;-0.12;80.21
69006;SHT31;56061;51.748;19.620;2023-02-26T04:44:36;-0.13;80.12
69006;SHT31;56061;51.748;19.620;2023-02-26T04:47:02;-0.15;80.13
69006;SHT31;56061;51.748;19.620;2023-02-26T04:49:29;-0.15;80.35
69006;SHT31;56061;51.748;19.620;2023-02-26T04:51:56;-0.14;80.46
69006;SHT31;56061;51.748;19.620;2023-02-26T04:54:23;-0.13;80.37
69006;SHT31;56061;51.748;19.620;2023-02-26T04:56:49;-0.13;80.45
69006;SHT31;56061;51.748;19.620;2023-02-26T04:59:16;-0.13;80.34
69006;SHT31;56061;51.748;19.620;2023-02-26T05:01:42;-0.16;80.22
69006;SHT31;56061;51.748;19.620;2023-02-26T05:04:09;-0.18;80.13
69006;SHT31;56061;51.748;19.620;2023-02-26T05:06:35;-0.20;80.12
69006;SHT31;56061;51.748;19.620;2023-02-26T05:09:02;-0.20;80.22
69006;SHT31;56061;51.748;19.620;2023-02-26T05:11:29;-0.20;80.34
69006;SHT31;56061;51.748;19.620;2023-02-26T05:13:55;-0.18;80.30
69006;SHT31;56061;51.748;19.620;2023-02-26T05:16:22;-0.18;80.12
69006;SHT31;56061;51.748;19.620;2023-02-26T05:18:49;-0.19;80.11
69006;SHT31;56061;51.748;19.620;2023-02-26T05:21:16;-0.21;80.08
69006;SHT31;56061;51.748;19.620;2023-02-26T05:23:42;-0.23;80.22
69006;SHT31;56061;51.748;19.620;2023-02-26T05:26:09;-0.25;80.20
69006;SHT31;56061;51.748;19.620;2023-02-26T05:28:36;-0.25;80.20
69006;SHT31;56061;51.748;19.620;2023-02-26T05:31:03;-0.24;80.30
69006;SHT31;56061;51.748;19.620;2023-02-26T05:33:30;-0.23;80.33
69006;SHT31;56061;51.748;19.620;2023-02-26T05:35:57;-0.25;80.22
69006;SHT31;56061;51.748;19.620;2023-02-26T05:38:24;-0.25;80.24
69006;SHT31;56061;51.748;19.620;2023-02-26T05:40:50;-0.25;80.39
69006;SHT31;56061;51.748;19.620;2023-02-26T05:43:23;-0.26;80.42
69006;SHT31;56061;51.748;19.620;2023-02-26T05:45:50;-0.25;80.50
69006;SHT31;56061;51.748;19.620;2023-02-26T05:48:17;-0.23;80.60
69006;SHT31;56061;51.748;19.620;2023-02-26T05:50:44;-0.20;80.65
69006;SHT31;56061;51.748;19.620;2023-02-26T05:53:10;-0.21;80.57
69006;SHT31;56061;51.748;19.620;2023-02-26T05:55:37;-0.22;80.69
69006;SHT31;56061;51.748;19.620;2023-02-26T05:58:03;-0.23;80.77
69006;SHT31;56061;51.748;19.620;2023-02-26T06:00:29;-0.22;80.81
69006;SHT31;56061;51.748;19.620;2023-02-26T06:02:56;-0.23;80.79
69006;SHT31;56061;51.748;19.620;2023-02-26T06:05:23;-0.21;80.80
69006;SHT31;56061;51.748;19.620;2023-02-26T06:07:50;-0.21;80.79
69006;SHT31;56061;51.748;19.620;2023-02-26T06:10:16;-0.22;80.68
69006;SHT31;56061;51.748;19.620;2023-02-26T06:12:44;-0.24;80.49
69006;SHT31;56061;51.748;19.620;2023-02-26T06:15:11;-0.27;80.27
69006;SHT31;56061;51.748;19.620;2023-02-26T06:17:38;-0.29;80.31
69006;SHT31;56061;51.748;19.620;2023-02-26T06:20:06;-0.31;80.19
69006;SHT31;56061;51.748;19.620;2023-02-26T06:22:34;-0.30;80.33
69006;SHT31;56061;51.748;19.620;2023-02-26T06:25:00;-0.29;80.40
69006;SHT31;56061;51.748;19.620;2023-02-26T06:27:27;-0.27;80.30
69006;SHT31;56061;51.748;19.620;2023-02-26T06:29:54;-0.26;80.22
69006;SHT31;56061;51.748;19.620;2023-02-26T06:32:20;-0.29;80.15
69006;SHT31;56061;51.748;19.620;2023-02-26T06:34:47;-0.30;80.15
69006;SHT31;56061;51.748;19.620;2023-02-26T06:37:13;-0.33;80.26
69006;SHT31;56061;51.748;19.620;2023-02-26T06:39:40;-0.36;80.28
69006;SHT31;56061;51.748;19.620;2023-02-26T06:42:07;-0.38;80.30
69006;SHT31;56061;51.748;19.620;2023-02-26T06:44:34;-0.38;80.38
69006;SHT31;56061;51.748;19.620;2023-02-26T06:47:00;-0.36;80.44
69006;SHT31;56061;51.748;19.620;2023-02-26T06:49:26;-0.34;80.54
69006;SHT31;56061;51.748;19.620;2023-02-26T06:51:53;-0.32;80.48
69006;SHT31;56061;51.748;19.620;2023-02-26T06:54:19;-0.32;80.19
69006;SHT31;56061;51.748;19.620;2023-02-26T06:56:46;-0.33;80.30
69006;SHT31;56061;51.748;19.620;2023-02-26T06:59:12;-0.33;80.31
69006;SHT31;56061;51.748;19.620;2023-02-26T07:01:40;-0.34;80.21
69006;SHT31;56061;51.748;19.620;2023-02-26T07:04:07;-0.34;80.10
69006;SHT31;56061;51.748;19.620;2023-02-26T07:06:34;-0.33;79.98
69006;SHT31;56061;51.748;19.620;2023-02-26T07:09:00;-0.32;80.03
69006;SHT31;56061;51.748;19.620;2023-02-26T07:11:26;-0.33;79.88
69006;SHT31;56061;51.748;19.620;2023-02-26T07:13:53;-0.33;79.70
69006;SHT31;56061;51.748;19.620;2023-02-26T07:16:20;-0.34;79.77
69006;SHT31;56061;51.748;19.620;2023-02-26T07:18:47;-0.32;79.81
69006;SHT31;56061;51.748;19.620;2023-02-26T07:21:14;-0.29;79.66
69006;SHT31;56061;51.748;19.620;2023-02-26T07:23:40;-0.26;79.39
69006;SHT31;56061;51.748;19.620;2023-02-26T07:26:06;-0.25;79.21
69006;SHT31;56061;51.748;19.620;2023-02-26T07:28:34;-0.24;79.01
69006;SHT31;56061;51.748;19.620;2023-02-26T07:31:01;-0.24;78.98
69006;SHT31;56061;51.748;19.620;2023-02-26T07:33:27;-0.22;78.92
69006;SHT31;56061;51.748;19.620;2023-02-26T07:35:54;-0.22;78.55
69006;SHT31;56061;51.748;19.620;2023-02-26T07:38:20;-0.19;78.64
69006;SHT31;56061;51.748;19.620;2023-02-26T07:40:47;-0.15;78.72
69006;SHT31;56061;51.748;19.620;2023-02-26T07:43:14;-0.09;78.73
69006;SHT31;56061;51.748;19.620;2023-02-26T07:45:41;-0.05;78.63
69006;SHT31;56061;51.748;19.620;2023-02-26T07:48:08;-0.01;78.49
69006;SHT31;56061;51.748;19.620;2023-02-26T07:50:34;0.01;78.44
69006;SHT31;56061;51.748;19.620;2023-02-26T07:53:01;0.01;77.95
69006;SHT31;56061;51.748;19.620;2023-02-26T07:55:27;0.02;77.82
69006;SHT31;56061;51.748;19.620;2023-02-26T07:57:55;0.02;77.64
69006;SHT31;56061;51.748;19.620;2023-02-26T08:00:22;0.01;77.54
69006;SHT31;56061;51.748;19.620;2023-02-26T08:02:50;0.02;77.44
69006;SHT31;56061;51.748;19.620;2023-02-26T08:05:16;0.06;77.23
69006;SHT31;56061;51.748;19.620;2023-02-26T08:07:43;0.09;76.90
69006;SHT31;56061;51.748;19.620;2023-02-26T08:10:10;0.11;76.95
69006;SHT31;56061;51.748;19.620;2023-02-26T08:12:38;0.10;76.51
69006;SHT31;56061;51.748;19.620;2023-02-26T08:15:04;0.10;76.43
69006;SHT31;56061;51.748;19.620;2023-02-26T08:17:32;0.10;75.90
69006;SHT31;56061;51.748;19.620;2023-02-26T08:19:59;0.12;76.22
69006;SHT31;56061;51.748;19.620;2023-02-26T08:22:25;0.13;76.00
69006;SHT31;56061;51.748;19.620;2023-02-26T08:24:52;0.13;75.72
69006;SHT31;56061;51.748;19.620;2023-02-26T08:27:22;0.15;75.65
69006;SHT31;56061;51.748;19.620;2023-02-26T08:29:48;0.14;75.07
69006;SHT31;56061;51.748;19.620;2023-02-26T08:32:16;0.15;75.41
69006;SHT31;56061;51.748;19.620;2023-02-26T08:34:45;0.17;75.49
69006;SHT31;56061;51.748;19.620;2023-02-26T08:37:12;0.22;75.58
69006;SHT31;56061;51.748;19.620;2023-02-26T08:39:39;0.27;75.38
69006;SHT31;56061;51.748;19.620;2023-02-26T08:42:07;0.30;75.63
69006;SHT31;56061;51.748;19.620;2023-02-26T08:44:34;0.32;75.65
69006;SHT31;56061;51.748;19.620;2023-02-26T08:47:01;0.33;75.61
69006;SHT31;56061;51.748;19.620;2023-02-26T08:49:29;0.34;75.49
69006;SHT31;56061;51.748;19.620;2023-02-26T08:51:55;0.35;75.21
69006;SHT31;56061;51.748;19.620;2023-02-26T08:54:22;0.33;75.51
69006;SHT31;56061;51.748;19.620;2023-02-26T08:56:49;0.34;75.90
69006;SHT31;56061;51.748;19.620;2023-02-26T08:59:18;0.35;75.92
69006;SHT31;56061;51.748;19.620;2023-02-26T09:01:45;0.35;75.92
69006;SHT31;56061;51.748;19.620;2023-02-26T09:04:11;0.34;75.97
69006;SHT31;56061;51.748;19.620;2023-02-26T09:06:38;0.35;76.21
69006;SHT31;56061;51.748;19.620;2023-02-26T09:09:05;0.36;76.38
69006;SHT31;56061;51.748;19.620;2023-02-26T09:11:32;0.33;76.66
69006;SHT31;56061;51.748;19.620;2023-02-26T09:13:59;0.31;76.83
69006;SHT31;56061;51.748;19.620;2023-02-26T09:16:27;0.30;76.98
69006;SHT31;56061;51.748;19.620;2023-02-26T09:18:55;0.31;77.22
69006;SHT31;56061;51.748;19.620;2023-02-26T09:21:25;0.34;77.43
69006;SHT31;56061;51.748;19.620;2023-02-26T09:23:52;0.37;77.71
69006;SHT31;56061;51.748;19.620;2023-02-26T09:26:18;0.39;77.98
69006;SHT31;56061;51.748;19.620;2023-02-26T09:28:45;0.40;78.07
69006;SHT31;56061;51.748;19.620;2023-02-26T09:31:11;0.41;78.25
69006;SHT31;56061;51.748;19.620;2023-02-26T09:33:38;0.41;78.34
69006;SHT31;56061;51.748;19.620;2023-02-26T09:36:06;0.44;78.28
69006;SHT31;56061;51.748;19.620;2023-02-26T09:38:33;0.48;78.35
69006;SHT31;56061;51.748;19.620;2023-02-26T09:41:02;0.53;78.60
69006;SHT31;56061;51.748;19.620;2023-02-26T09:43:43;0.57;78.52
69006;SHT31;56061;51.748;19.620;2023-02-26T09:46:35;0.59;78.43
69006;SHT31;56061;51.748;19.620;2023-02-26T09:49:14;0.57;78.44
69006;SHT31;56061;51.748;19.620;2023-02-26T09:55:11;0.55;78.61
69006;SHT31;56061;51.748;19.620;2023-02-26T09:57:47;0.63;78.51
69006;SHT31;56061;51.748;19.620;2023-02-26T10:00:37;0.74;78.27
69006;SHT31;56061;51.748;19.620;2023-02-26T10:03:18;0.82;77.19
69006;SHT31;56061;51.748;19.620;2023-02-26T10:06:45;0.91;76.66
69006;SHT31;56061;51.748;19.620;2023-02-26T10:12:47;0.93;75.80
69006;SHT31;56061;51.748;19.620;2023-02-26T10:18:15;0.79;75.26
69006;SHT31;56061;51.748;19.620;2023-02-26T10:21:02;0.74;75.18
69006;SHT31;56061;51.748;19.620;2023-02-26T10:23:41;0.65;74.49
69006;SHT31;56061;51.748;19.620;2023-02-26T10:32:13;0.56;75.42
69006;SHT31;56061;51.748;19.620;2023-02-26T10:35:00;0.54;75.59
69006;SHT31;56061;51.748;19.620;2023-02-26T10:40:45;0.43;76.41
69006;SHT31;56061;51.748;19.620;2023-02-26T10:43:20;0.39;76.68
69006;SHT31;56061;51.748;19.620;2023-02-26T10:46:16;0.41;76.97
69006;SHT31;56061;51.748;19.620;2023-02-26T10:49:22;0.46;77.09
69006;SHT31;56061;51.748;19.620;2023-02-26T10:52:00;0.51;76.69
69006;SHT31;56061;51.748;19.620;2023-02-26T10:55:02;0.54;76.23
69006;SHT31;56061;51.748;19.620;2023-02-26T10:57:54;0.52;76.18
69006;SHT31;56061;51.748;19.620;2023-02-26T11:00:30;0.52;76.44
69006;SHT31;56061;51.748;19.620;2023-02-26T11:03:01;0.51;76.08
69006;SHT31;56061;51.748;19.620;2023-02-26T11:05:32;0.49;76.03
69006;SHT31;56061;51.748;19.620;2023-02-26T11:08:04;0.51;76.34
69006;SHT31;56061;51.748;19.620;2023-02-26T11:10:55;0.58;76.43
69006;SHT31;56061;51.748;19.620;2023-02-26T11:13:25;0.70;76.40
69006;SHT31;56061;51.748;19.620;2023-02-26T11:15:56;0.83;76.44
69006;SHT31;56061;51.748;19.620;2023-02-26T11:18:36;0.97;76.24
69006;SHT31;56061;51.748;19.620;2023-02-26T11:21:17;1.10;75.95
69006;SHT31;56061;51.748;19.620;2023-02-26T11:23:48;1.19;75.22
69006;SHT31;56061;51.748;19.620;2023-02-26T11:26:49;1.20;73.61
69006;SHT31;56061;51.748;19.620;2023-02-26T11:29:20;1.22;73.88
69006;SHT31;56061;51.748;19.620;2023-02-26T11:31:53;1.24;73.53
69006;SHT31;56061;51.748;19.620;2023-02-26T11:34:23;1.26;73.24
69006;SHT31;56061;51.748;19.620;2023-02-26T11:36:52;1.27;72.37
69006;SHT31;56061;51.748;19.620;2023-02-26T11:39:24;1.24;71.86
69006;SHT31;56061;51.748;19.620;2023-02-26T11:41:59;1.24;72.08
69006;SHT31;56061;51.748;19.620;2023-02-26T11:45:01;1.19;70.86
69006;SHT31;56061;51.748;19.620;2023-02-26T11:47:23;1.13;71.13
69006;SHT31;56061;51.748;19.620;2023-02-26T11:49:59;1.12;71.50
69006;SHT31;56061;51.748;19.620;2023-02-26T11:55:01;1.08;71.18
69006;SHT31;56061;51.748;19.620;2023-02-26T11:57:32;1.03;71.11
69006;SHT31;56061;51.748;19.620;2023-02-26T11:59:59;1.00;71.48
69006;SHT31;56061;51.748;19.620;2023-02-26T12:02:50;1.04;72.13
69006;SHT31;56061;51.748;19.620;2023-02-26T12:05:17;1.10;71.93
69006;SHT31;56061;51.748;19.620;2023-02-26T12:07:44;1.13;71.61
69006;SHT31;56061;51.748;19.620;2023-02-26T12:10:16;1.20;71.81
69006;SHT31;56061;51.748;19.620;2023-02-26T12:13:00;1.29;71.80
69006;SHT31;56061;51.748;19.620;2023-02-26T12:21:55;1.58;70.21
69006;SHT31;56061;51.748;19.620;2023-02-26T12:24:38;1.62;68.24
69006;SHT31;56061;51.748;19.620;2023-02-26T12:30:10;1.79;67.98
69006;SHT31;56061;51.748;19.620;2023-02-26T12:42:17;1.72;65.30
69006;SHT31;56061;51.748;19.620;2023-02-26T12:57:11;1.79;66.41
69006;SHT31;56061;51.748;19.620;2023-02-26T13:00:17;1.85;66.28
69006;SHT31;56061;51.748;19.620;2023-02-26T13:03:11;1.94;66.29
69006;SHT31;56061;51.748;19.620;2023-02-26T13:09:27;2.14;65.01
69006;SHT31;56061;51.748;19.620;2023-02-26T13:12:19;2.09;65.00
69006;SHT31;56061;51.748;19.620;2023-02-26T13:18:26;1.92;66.05
69006;SHT31;56061;51.748;19.620;2023-02-26T13:21:18;1.88;66.51
